createdAt,value
2024-01-10T00:01:58.591Z,8.20
2024-01-10T00:15:58.268Z,7.90
2024-01-10T00:29:58.608Z,8.60
2024-01-10T00:43:59.473Z,9.20
2024-01-10T00:57:58.776Z,8.60
2024-01-10T01:11:57.821Z,8.20
2024-01-10T01:25:58.073Z,9.70
2024-01-10T01:39:58.226Z,9.20
2024-01-10T01:53:57.654Z,8.70
2024-01-10T02:07:57.481Z,8.60
2024-01-10T02:21:58.112Z,8.80
2024-01-10T02:35:57.193Z,8.70
2024-01-10T02:49:58.633Z,9.20
2024-01-10T03:03:58.334Z,9.50
2024-01-10T03:17:57.298Z,9.70
2024-01-10T03:31:56.412Z,9.10
2024-01-10T03:45:56.261Z,8.90
2024-01-10T03:59:56.160Z,8.80
2024-01-10T04:13:56.021Z,9.20
2024-01-10T04:27:55.867Z,8.80
2024-01-10T04:41:55.730Z,8.00
2024-01-10T04:55:55.638Z,8.20
2024-01-10T05:09:55.494Z,8.50
2024-01-10T05:23:55.348Z,9.10
2024-01-10T05:37:55.234Z,8.30
2024-01-10T05:51:55.089Z,7.90
2024-01-10T06:05:55.026Z,9.40
2024-01-10T06:19:54.846Z,8.80
2024-01-10T06:33:54.806Z,8.90
2024-01-10T06:47:54.682Z,10.40
2024-01-10T07:01:54.420Z,10.60
2024-01-10T07:15:55.068Z,11.10
2024-01-10T07:29:54.099Z,10.70
2024-01-10T07:43:53.963Z,12.20
2024-01-10T07:57:53.839Z,11.70
2024-01-10T08:11:53.716Z,12.00
2024-01-10T08:25:53.623Z,12.20
2024-01-10T08:39:53.437Z,11.40
2024-01-10T08:53:53.309Z,13.30
2024-01-10T09:07:53.215Z,14.00
2024-01-10T09:21:53.079Z,13.20
2024-01-10T09:35:52.907Z,15.10
2024-01-10T09:49:52.940Z,14.00
2024-01-10T10:03:52.677Z,15.40
2024-01-10T10:17:52.538Z,15.80
2024-01-10T10:31:52.492Z,15.80
2024-01-10T10:45:52.359Z,15.50
2024-01-10T10:59:52.095Z,15.40
2024-01-10T11:13:51.994Z,15.90
2024-01-10T11:27:52.446Z,17.90
2024-01-10T11:41:51.720Z,17.80
2024-01-10T11:55:51.671Z,19.30
2024-01-10T12:09:51.416Z,18.90
2024-01-10T12:23:51.231Z,19.00
2024-01-10T12:37:51.080Z,19.00
2024-01-10T12:51:51.175Z,20.30
2024-01-10T13:05:50.877Z,20.80
2024-01-10T13:19:50.749Z,19.10
2024-01-10T13:33:50.583Z,18.70
2024-01-10T13:47:50.318Z,20.10
2024-01-10T14:01:50.261Z,18.40
2024-01-10T14:15:50.065Z,18.10
2024-01-10T14:29:49.982Z,17.10
2024-01-10T14:43:49.865Z,16.70
2024-01-10T14:57:49.672Z,16.50
2024-01-10T15:25:49.532Z,17.00
2024-01-10T15:53:49.163Z,17.60
2024-01-10T16:07:49.040Z,17.00
2024-01-10T16:21:48.953Z,17.90
2024-01-10T16:35:48.896Z,17.50
2024-01-10T16:49:48.695Z,18.10
2024-01-10T17:03:49.224Z,17.40
2024-01-10T17:17:48.572Z,18.60
2024-01-10T17:31:48.382Z,19.00
2024-01-10T17:45:48.124Z,18.60
2024-01-10T17:59:47.979Z,20.80
2024-01-10T18:13:47.873Z,21.90
2024-01-10T18:27:47.704Z,21.00
2024-01-10T18:41:47.572Z,21.80
2024-01-10T18:55:47.509Z,21.60
2024-01-10T19:09:47.311Z,20.40
2024-01-10T19:23:47.225Z,19.20
2024-01-10T19:37:47.048Z,21.70
2024-01-10T19:51:46.887Z,20.10
2024-01-10T20:05:46.847Z,22.50
2024-01-10T20:19:46.743Z,22.20
2024-01-10T20:33:46.583Z,21.90
2024-01-10T20:47:46.385Z,22.10
2024-01-10T21:01:46.196Z,21.80
2024-01-10T21:15:46.083Z,22.60
2024-01-10T21:29:45.966Z,21.70
2024-01-10T21:43:45.815Z,23.60
2024-01-10T21:57:45.689Z,26.40
2024-01-10T22:11:45.541Z,23.60
2024-01-10T22:25:45.394Z,21.20
2024-01-10T22:39:45.274Z,22.10
2024-01-10T23:37:07.840Z,20.30
2024-01-10T23:51:07.703Z,23.10
